sensor_id;sensor_type;location;lat;lon;timestamp;P1;durP1;ratioP1;P2;durP2;ratioP2
7941;SDS011;4016;50.758;7.150;2023-02-10T00:02:06;14.53;;;10.43;;
7941;SDS011;4016;50.758;7.150;2023-02-10T00:07:07;19.20;;;10.97;;
7941;SDS011;4016;50.758;7.150;2023-02-10T00:12:07;15.50;;;9.93;;
7941;SDS011;4016;50.758;7.150;2023-02-10T00:17:09;14.80;;;9.27;;
7941;SDS011;4016;50.758;7.150;2023-02-10T00:22:10;14.77;;;9.30;;
7941;SDS011;4016;50.758;7.150;2023-02-10T00:27:10;15.17;;;10.43;;
7941;SDS011;4016;50.758;7.150;2023-02-10T00:32:10;14.73;;;10.33;;
7941;SDS011;4016;50.758;7.150;2023-02-10T00:37:11;15.90;;;10.80;;
7941;SDS011;4016;50.758;7.150;2023-02-10T00:42:11;15.60;;;9.67;;
7941;SDS011;4016;50.758;7.150;2023-02-10T00:47:12;12.13;;;9.17;;
7941;SDS011;4016;50.758;7.150;2023-02-10T00:52:12;16.33;;;11.07;;
7941;SDS011;4016;50.758;7.150;2023-02-10T00:57:13;13.17;;;9.40;;
7941;SDS011;4016;50.758;7.150;2023-02-10T01:02:13;15.07;;;10.33;;
7941;SDS011;4016;50.758;7.150;2023-02-10T01:07:14;19.30;;;11.63;;
7941;SDS011;4016;50.758;7.150;2023-02-10T01:12:14;13.07;;;9.17;;
7941;SDS011;4016;50.758;7.150;2023-02-10T01:17:14;14.97;;;9.23;;
7941;SDS011;4016;50.758;7.150;2023-02-10T01:22:15;16.97;;;10.10;;
7941;SDS011;4016;50.758;7.150;2023-02-10T01:27:15;18.57;;;9.67;;
7941;SDS011;4016;50.758;7.150;2023-02-10T01:32:16;15.93;;;9.80;;
7941;SDS011;4016;50.758;7.150;2023-02-10T01:37:16;18.90;;;11.07;;
7941;SDS011;4016;50.758;7.150;2023-02-10T01:42:16;18.13;;;10.23;;
7941;SDS011;4016;50.758;7.150;2023-02-10T01:47:17;17.10;;;10.27;;
7941;SDS011;4016;50.758;7.150;2023-02-10T01:52:18;17.43;;;10.13;;
7941;SDS011;4016;50.758;7.150;2023-02-10T01:57:21;17.90;;;10.43;;
7941;SDS011;4016;50.758;7.150;2023-02-10T02:02:22;16.30;;;10.00;;
7941;SDS011;4016;50.758;7.150;2023-02-10T02:07:24;13.83;;;9.47;;
7941;SDS011;4016;50.758;7.150;2023-02-10T02:12:30;16.17;;;10.27;;
7941;SDS011;4016;50.758;7.150;2023-02-10T02:17:44;19.77;;;11.30;;
7941;SDS011;4016;50.758;7.150;2023-02-10T02:23:15;15.47;;;10.53;;
7941;SDS011;4016;50.758;7.150;2023-02-10T02:34:03;18.07;;;11.13;;
7941;SDS011;4016;50.758;7.150;2023-02-10T02:39:10;20.63;;;12.20;;
7941;SDS011;4016;50.758;7.150;2023-02-10T02:44:10;20.23;;;11.07;;
7941;SDS011;4016;50.758;7.150;2023-02-10T02:49:13;22.00;;;11.87;;
7941;SDS011;4016;50.758;7.150;2023-02-10T02:54:33;20.97;;;12.60;;
7941;SDS011;4016;50.758;7.150;2023-02-10T02:59:49;20.83;;;11.80;;
7941;SDS011;4016;50.758;7.150;2023-02-10T03:04:58;16.77;;;11.37;;
7941;SDS011;4016;50.758;7.150;2023-02-10T03:09:59;17.13;;;10.27;;
7941;SDS011;4016;50.758;7.150;2023-02-10T03:14:59;20.00;;;11.73;;
7941;SDS011;4016;50.758;7.150;2023-02-10T03:20:00;19.80;;;12.23;;
7941;SDS011;4016;50.758;7.150;2023-02-10T03:25:00;21.13;;;11.40;;
7941;SDS011;4016;50.758;7.150;2023-02-10T03:30:01;16.97;;;10.40;;
7941;SDS011;4016;50.758;7.150;2023-02-10T03:35:01;15.57;;;9.67;;
7941;SDS011;4016;50.758;7.150;2023-02-10T03:40:02;20.03;;;10.27;;
7941;SDS011;4016;50.758;7.150;2023-02-10T03:45:02;18.13;;;10.93;;
7941;SDS011;4016;50.758;7.150;2023-02-10T03:50:03;17.83;;;11.60;;
7941;SDS011;4016;50.758;7.150;2023-02-10T03:55:04;17.83;;;10.43;;
7941;SDS011;4016;50.758;7.150;2023-02-10T04:00:05;14.87;;;10.37;;
7941;SDS011;4016;50.758;7.150;2023-02-10T04:05:06;19.53;;;10.70;;
7941;SDS011;4016;50.758;7.150;2023-02-10T04:10:07;14.20;;;9.67;;
7941;SDS011;4016;50.758;7.150;2023-02-10T04:15:07;15.40;;;9.70;;
7941;SDS011;4016;50.758;7.150;2023-02-10T04:20:08;14.40;;;9.70;;
7941;SDS011;4016;50.758;7.150;2023-02-10T04:25:08;14.63;;;9.60;;
7941;SDS011;4016;50.758;7.150;2023-02-10T04:30:09;15.67;;;9.73;;
7941;SDS011;4016;50.758;7.150;2023-02-10T04:35:10;18.30;;;10.30;;
7941;SDS011;4016;50.758;7.150;2023-02-10T04:40:10;12.73;;;9.30;;
7941;SDS011;4016;50.758;7.150;2023-02-10T04:45:11;13.47;;;9.47;;
7941;SDS011;4016;50.758;7.150;2023-02-10T04:50:11;21.17;;;11.37;;
7941;SDS011;4016;50.758;7.150;2023-02-10T04:55:12;11.93;;;8.33;;
7941;SDS011;4016;50.758;7.150;2023-02-10T05:00:12;12.93;;;9.07;;
7941;SDS011;4016;50.758;7.150;2023-02-10T05:05:13;18.53;;;10.77;;
7941;SDS011;4016;50.758;7.150;2023-02-10T05:10:14;13.37;;;9.47;;
7941;SDS011;4016;50.758;7.150;2023-02-10T05:15:14;20.77;;;9.70;;
7941;SDS011;4016;50.758;7.150;2023-02-10T05:20:15;14.93;;;9.67;;
7941;SDS011;4016;50.758;7.150;2023-02-10T05:25:15;21.83;;;10.37;;
7941;SDS011;4016;50.758;7.150;2023-02-10T05:30:15;15.07;;;9.70;;
7941;SDS011;4016;50.758;7.150;2023-02-10T05:35:16;17.87;;;9.60;;
7941;SDS011;4016;50.758;7.150;2023-02-10T05:40:16;15.37;;;9.30;;
7941;SDS011;4016;50.758;7.150;2023-02-10T05:45:17;13.73;;;9.87;;
7941;SDS011;4016;50.758;7.150;2023-02-10T05:50:17;12.87;;;8.73;;
7941;SDS011;4016;50.758;7.150;2023-02-10T05:55:18;17.03;;;9.80;;
7941;SDS011;4016;50.758;7.150;2023-02-10T06:00:19;16.97;;;10.63;;
7941;SDS011;4016;50.758;7.150;2023-02-10T06:05:19;17.23;;;9.83;;
7941;SDS011;4016;50.758;7.150;2023-02-10T06:10:19;21.53;;;11.90;;
7941;SDS011;4016;50.758;7.150;2023-02-10T06:15:20;16.53;;;8.93;;
7941;SDS011;4016;50.758;7.150;2023-02-10T06:20:20;15.50;;;9.73;;
7941;SDS011;4016;50.758;7.150;2023-02-10T06:25:21;17.57;;;11.03;;
7941;SDS011;4016;50.758;7.150;2023-02-10T06:30:21;15.80;;;9.43;;
7941;SDS011;4016;50.758;7.150;2023-02-10T06:35:21;14.80;;;8.83;;
7941;SDS011;4016;50.758;7.150;2023-02-10T06:40:22;14.07;;;8.97;;
7941;SDS011;4016;50.758;7.150;2023-02-10T06:45:22;14.07;;;9.73;;
7941;SDS011;4016;50.758;7.150;2023-02-10T06:50:22;13.50;;;8.87;;
7941;SDS011;4016;50.758;7.150;2023-02-10T06:55:23;13.67;;;9.20;;
7941;SDS011;4016;50.758;7.150;2023-02-10T07:00:23;16.97;;;10.03;;
7941;SDS011;4016;50.758;7.150;2023-02-10T07:05:24;19.70;;;10.10;;
7941;SDS011;4016;50.758;7.150;2023-02-10T07:10:25;12.93;;;8.97;;
7941;SDS011;4016;50.758;7.150;2023-02-10T07:15:25;12.80;;;9.50;;
7941;SDS011;4016;50.758;7.150;2023-02-10T07:20:26;12.73;;;9.10;;
7941;SDS011;4016;50.758;7.150;2023-02-10T07:25:26;14.37;;;10.63;;
7941;SDS011;4016;50.758;7.150;2023-02-10T07:30:27;14.10;;;9.50;;
7941;SDS011;4016;50.758;7.150;2023-02-10T07:35:28;20.20;;;10.70;;
7941;SDS011;4016;50.758;7.150;2023-02-10T07:40:28;14.13;;;10.07;;
7941;SDS011;4016;50.758;7.150;2023-02-10T07:45:30;14.87;;;9.50;;
7941;SDS011;4016;50.758;7.150;2023-02-10T07:50:30;16.30;;;10.10;;
7941;SDS011;4016;50.758;7.150;2023-02-10T07:55:31;15.57;;;10.47;;
7941;SDS011;4016;50.758;7.150;2023-02-10T08:00:31;17.00;;;10.60;;
7941;SDS011;4016;50.758;7.150;2023-02-10T08:05:34;15.27;;;9.73;;
7941;SDS011;4016;50.758;7.150;2023-02-10T08:10:36;17.87;;;11.03;;
7941;SDS011;4016;50.758;7.150;2023-02-10T08:15:37;18.27;;;10.53;;
7941;SDS011;4016;50.758;7.150;2023-02-10T08:20:38;15.47;;;10.27;;
7941;SDS011;4016;50.758;7.150;2023-02-10T08:25:40;16.53;;;10.70;;
7941;SDS011;4016;50.758;7.150;2023-02-10T08:30:41;21.47;;;11.17;;
7941;SDS011;4016;50.758;7.150;2023-02-10T08:35:41;18.97;;;11.47;;
7941;SDS011;4016;50.758;7.150;2023-02-10T08:40:41;18.03;;;10.57;;
7941;SDS011;4016;50.758;7.150;2023-02-10T08:45:42;15.80;;;9.90;;
7941;SDS011;4016;50.758;7.150;2023-02-10T08:50:42;13.87;;;9.27;;
7941;SDS011;4016;50.758;7.150;2023-02-10T08:55:43;17.20;;;10.37;;
7941;SDS011;4016;50.758;7.150;2023-02-10T09:00:44;15.17;;;9.37;;
7941;SDS011;4016;50.758;7.150;2023-02-10T09:05:44;16.03;;;10.20;;
7941;SDS011;4016;50.758;7.150;2023-02-10T09:10:45;15.67;;;11.07;;
7941;SDS011;4016;50.758;7.150;2023-02-10T09:15:46;18.97;;;10.23;;
7941;SDS011;4016;50.758;7.150;2023-02-10T09:20:47;16.30;;;10.00;;
7941;SDS011;4016;50.758;7.150;2023-02-10T09:25:54;19.00;;;9.97;;
7941;SDS011;4016;50.758;7.150;2023-02-10T09:30:55;14.50;;;9.30;;
7941;SDS011;4016;50.758;7.150;2023-02-10T09:35:55;16.43;;;9.47;;
7941;SDS011;4016;50.758;7.150;2023-02-10T09:46:16;15.57;;;9.57;;
7941;SDS011;4016;50.758;7.150;2023-02-10T09:56:52;17.40;;;8.70;;
7941;SDS011;4016;50.758;7.150;2023-02-10T10:01:53;13.57;;;9.47;;
7941;SDS011;4016;50.758;7.150;2023-02-10T10:07:09;15.17;;;8.40;;
7941;SDS011;4016;50.758;7.150;2023-02-10T10:12:23;17.43;;;9.73;;
7941;SDS011;4016;50.758;7.150;2023-02-10T10:33:53;13.50;;;8.43;;
7941;SDS011;4016;50.758;7.150;2023-02-10T10:39:09;13.53;;;8.73;;
7941;SDS011;4016;50.758;7.150;2023-02-10T10:44:12;12.63;;;8.10;;
7941;SDS011;4016;50.758;7.150;2023-02-10T10:49:16;14.97;;;8.43;;
7941;SDS011;4016;50.758;7.150;2023-02-10T10:54:18;15.10;;;8.87;;
7941;SDS011;4016;50.758;7.150;2023-02-10T10:59:29;12.40;;;8.43;;
7941;SDS011;4016;50.758;7.150;2023-02-10T11:04:35;14.93;;;9.10;;
7941;SDS011;4016;50.758;7.150;2023-02-10T11:09:41;15.20;;;8.47;;
7941;SDS011;4016;50.758;7.150;2023-02-10T11:14:48;17.80;;;9.43;;
7941;SDS011;4016;50.758;7.150;2023-02-10T11:19:55;15.40;;;8.60;;
7941;SDS011;4016;50.758;7.150;2023-02-10T11:25:01;14.53;;;8.60;;
7941;SDS011;4016;50.758;7.150;2023-02-10T11:30:34;13.43;;;8.77;;
7941;SDS011;4016;50.758;7.150;2023-02-10T11:35:35;14.17;;;9.27;;
7941;SDS011;4016;50.758;7.150;2023-02-10T11:40:48;14.77;;;9.20;;
7941;SDS011;4016;50.758;7.150;2023-02-10T11:45:53;15.17;;;9.13;;
7941;SDS011;4016;50.758;7.150;2023-02-10T11:51:03;13.17;;;9.13;;
7941;SDS011;4016;50.758;7.150;2023-02-10T11:56:09;14.10;;;9.20;;
7941;SDS011;4016;50.758;7.150;2023-02-10T12:01:52;15.83;;;9.27;;
7941;SDS011;4016;50.758;7.150;2023-02-10T12:07:15;17.27;;;10.80;;
7941;SDS011;4016;50.758;7.150;2023-02-10T12:12:46;13.53;;;9.30;;
7941;SDS011;4016;50.758;7.150;2023-02-10T12:28:10;17.27;;;9.47;;
7941;SDS011;4016;50.758;7.150;2023-02-10T13:04:58;13.13;;;8.67;;
7941;SDS011;4016;50.758;7.150;2023-02-10T13:10:09;18.00;;;9.27;;
7941;SDS011;4016;50.758;7.150;2023-02-10T13:15:29;11.67;;;8.27;;
7941;SDS011;4016;50.758;7.150;2023-02-10T13:20:40;14.97;;;8.33;;
7941;SDS011;4016;50.758;7.150;2023-02-10T13:26:06;12.53;;;7.67;;
7941;SDS011;4016;50.758;7.150;2023-02-10T13:31:36;11.63;;;7.60;;
7941;SDS011;4016;50.758;7.150;2023-02-10T13:37:08;11.27;;;8.00;;
7941;SDS011;4016;50.758;7.150;2023-02-10T13:42:17;12.97;;;8.10;;
7941;SDS011;4016;50.758;7.150;2023-02-10T13:52:29;10.23;;;7.67;;
7941;SDS011;4016;50.758;7.150;2023-02-10T13:57:36;13.47;;;7.07;;
7941;SDS011;4016;50.758;7.150;2023-02-10T14:02:38;8.63;;;7.10;;
7941;SDS011;4016;50.758;7.150;2023-02-10T14:07:39;9.70;;;6.80;;
7941;SDS011;4016;50.758;7.150;2023-02-10T14:12:41;6.80;;;5.60;;
7941;SDS011;4016;50.758;7.150;2023-02-10T14:17:41;10.17;;;6.40;;
7941;SDS011;4016;50.758;7.150;2023-02-10T14:22:59;9.97;;;6.63;;
7941;SDS011;4016;50.758;7.150;2023-02-10T14:28:01;9.53;;;7.40;;
7941;SDS011;4016;50.758;7.150;2023-02-10T14:33:04;12.47;;;8.90;;
7941;SDS011;4016;50.758;7.150;2023-02-10T14:38:16;13.77;;;9.70;;
7941;SDS011;4016;50.758;7.150;2023-02-10T14:43:24;15.60;;;9.67;;
7941;SDS011;4016;50.758;7.150;2023-02-10T14:48:27;10.80;;;9.67;;
7941;SDS011;4016;50.758;7.150;2023-02-10T14:53:30;13.17;;;10.00;;
7941;SDS011;4016;50.758;7.150;2023-02-10T14:58:30;13.37;;;9.10;;
7941;SDS011;4016;50.758;7.150;2023-02-10T15:03:31;14.20;;;9.23;;
7941;SDS011;4016;50.758;7.150;2023-02-10T15:08:40;11.00;;;8.93;;
7941;SDS011;4016;50.758;7.150;2023-02-10T15:13:46;15.60;;;9.47;;
7941;SDS011;4016;50.758;7.150;2023-02-10T15:18:48;14.97;;;10.37;;
7941;SDS011;4016;50.758;7.150;2023-02-10T15:23:51;11.77;;;8.60;;
7941;SDS011;4016;50.758;7.150;2023-02-10T15:29:10;15.13;;;9.73;;
7941;SDS011;4016;50.758;7.150;2023-02-10T15:34:16;15.20;;;9.03;;
7941;SDS011;4016;50.758;7.150;2023-02-10T15:39:37;14.50;;;8.93;;
7941;SDS011;4016;50.758;7.150;2023-02-10T15:44:40;12.37;;;8.53;;
7941;SDS011;4016;50.758;7.150;2023-02-10T15:49:47;13.23;;;8.30;;
7941;SDS011;4016;50.758;7.150;2023-02-10T15:54:58;11.27;;;8.27;;
7941;SDS011;4016;50.758;7.150;2023-02-10T16:00:00;13.53;;;8.33;;
7941;SDS011;4016;50.758;7.150;2023-02-10T16:05:01;14.10;;;9.63;;
7941;SDS011;4016;50.758;7.150;2023-02-10T16:10:02;12.57;;;8.17;;
7941;SDS011;4016;50.758;7.150;2023-02-10T16:15:02;11.47;;;9.67;;
7941;SDS011;4016;50.758;7.150;2023-02-10T16:20:03;14.80;;;8.60;;
7941;SDS011;4016;50.758;7.150;2023-02-10T16:25:05;12.17;;;8.53;;
7941;SDS011;4016;50.758;7.150;2023-02-10T16:30:05;13.30;;;9.13;;
7941;SDS011;4016;50.758;7.150;2023-02-10T16:35:06;13.13;;;8.10;;
7941;SDS011;4016;50.758;7.150;2023-02-10T16:40:07;10.77;;;8.47;;
7941;SDS011;4016;50.758;7.150;2023-02-10T16:45:11;11.50;;;8.73;;
7941;SDS011;4016;50.758;7.150;2023-02-10T16:50:45;12.50;;;8.43;;
7941;SDS011;4016;50.758;7.150;2023-02-10T16:55:41;12.87;;;7.77;;
7941;SDS011;4016;50.758;7.150;2023-02-10T17:00:41;16.67;;;7.77;;
7941;SDS011;4016;50.758;7.150;2023-02-10T17:05:43;14.00;;;8.70;;
7941;SDS011;4016;50.758;7.150;2023-02-10T17:10:44;10.43;;;8.30;;
7941;SDS011;4016;50.758;7.150;2023-02-10T17:15:45;14.47;;;8.57;;
7941;SDS011;4016;50.758;7.150;2023-02-10T17:20:46;15.07;;;9.23;;
7941;SDS011;4016;50.758;7.150;2023-02-10T17:25:46;11.37;;;7.80;;
7941;SDS011;4016;50.758;7.150;2023-02-10T17:30:47;14.27;;;9.70;;
7941;SDS011;4016;50.758;7.150;2023-02-10T17:35:49;11.93;;;8.07;;
7941;SDS011;4016;50.758;7.150;2023-02-10T17:40:49;12.30;;;8.50;;
7941;SDS011;4016;50.758;7.150;2023-02-10T17:45:50;13.00;;;8.70;;
7941;SDS011;4016;50.758;7.150;2023-02-10T17:50:50;13.73;;;8.27;;
7941;SDS011;4016;50.758;7.150;2023-02-10T17:55:50;12.77;;;8.70;;
7941;SDS011;4016;50.758;7.150;2023-02-10T18:00:51;13.70;;;10.03;;
7941;SDS011;4016;50.758;7.150;2023-02-10T18:05:52;13.40;;;8.87;;
7941;SDS011;4016;50.758;7.150;2023-02-10T18:10:59;14.00;;;8.87;;
7941;SDS011;4016;50.758;7.150;2023-02-10T18:15:59;15.50;;;8.30;;
7941;SDS011;4016;50.758;7.150;2023-02-10T18:21:00;12.33;;;8.10;;
7941;SDS011;4016;50.758;7.150;2023-02-10T18:26:00;18.03;;;8.80;;
7941;SDS011;4016;50.758;7.150;2023-02-10T18:31:01;15.17;;;8.60;;
7941;SDS011;4016;50.758;7.150;2023-02-10T18:36:05;12.07;;;8.03;;
7941;SDS011;4016;50.758;7.150;2023-02-10T18:41:09;14.17;;;8.30;;
7941;SDS011;4016;50.758;7.150;2023-02-10T18:46:10;13.13;;;7.90;;
7941;SDS011;4016;50.758;7.150;2023-02-10T18:51:11;13.20;;;8.23;;
7941;SDS011;4016;50.758;7.150;2023-02-10T18:56:14;14.33;;;8.70;;
7941;SDS011;4016;50.758;7.150;2023-02-10T19:01:17;13.63;;;8.33;;
7941;SDS011;4016;50.758;7.150;2023-02-10T19:06:19;14.43;;;8.60;;
7941;SDS011;4016;50.758;7.150;2023-02-10T19:11:20;13.80;;;8.80;;
7941;SDS011;4016;50.758;7.150;2023-02-10T19:16:21;13.47;;;9.33;;
7941;SDS011;4016;50.758;7.150;2023-02-10T19:21:21;15.40;;;9.50;;
7941;SDS011;4016;50.758;7.150;2023-02-10T19:26:22;17.53;;;9.80;;
7941;SDS011;4016;50.758;7.150;2023-02-10T19:31:22;11.37;;;8.70;;
7941;SDS011;4016;50.758;7.150;2023-02-10T19:36:23;16.47;;;10.40;;
7941;SDS011;4016;50.758;7.150;2023-02-10T19:41:25;16.13;;;10.53;;
7941;SDS011;4016;50.758;7.150;2023-02-10T19:46:26;17.33;;;10.33;;
7941;SDS011;4016;50.758;7.150;2023-02-10T19:51:26;11.57;;;8.10;;
7941;SDS011;4016;50.758;7.150;2023-02-10T19:56:27;13.83;;;8.37;;
7941;SDS011;4016;50.758;7.150;2023-02-10T20:01:27;14.47;;;8.97;;
7941;SDS011;4016;50.758;7.150;2023-02-10T20:06:38;10.27;;;6.90;;
7941;SDS011;4016;50.758;7.150;2023-02-10T20:11:44;13.57;;;8.10;;
7941;SDS011;4016;50.758;7.150;2023-02-10T20:16:44;16.07;;;9.03;;
7941;SDS011;4016;50.758;7.150;2023-02-10T20:21:45;12.67;;;7.93;;
7941;SDS011;4016;50.758;7.150;2023-02-10T20:26:46;12.57;;;7.43;;
7941;SDS011;4016;50.758;7.150;2023-02-10T20:31:47;14.97;;;8.53;;
7941;SDS011;4016;50.758;7.150;2023-02-10T20:36:47;14.30;;;8.90;;
7941;SDS011;4016;50.758;7.150;2023-02-10T20:41:48;13.93;;;8.37;;
7941;SDS011;4016;50.758;7.150;2023-02-10T20:46:48;12.37;;;8.40;;
7941;SDS011;4016;50.758;7.150;2023-02-10T20:51:48;17.57;;;10.10;;
7941;SDS011;4016;50.758;7.150;2023-02-10T20:56:49;16.47;;;10.20;;
7941;SDS011;4016;50.758;7.150;2023-02-10T21:01:49;22.37;;;11.83;;
7941;SDS011;4016;50.758;7.150;2023-02-10T21:06:50;18.37;;;10.90;;
7941;SDS011;4016;50.758;7.150;2023-02-10T21:11:50;18.27;;;11.00;;
7941;SDS011;4016;50.758;7.150;2023-02-10T21:16:50;18.00;;;11.60;;
7941;SDS011;4016;50.758;7.150;2023-02-10T21:21:51;19.60;;;11.80;;
7941;SDS011;4016;50.758;7.150;2023-02-10T21:26:51;17.67;;;9.67;;
7941;SDS011;4016;50.758;7.150;2023-02-10T21:31:53;18.20;;;11.67;;
7941;SDS011;4016;50.758;7.150;2023-02-10T21:36:54;20.57;;;10.37;;
7941;SDS011;4016;50.758;7.150;2023-02-10T21:41:55;20.73;;;10.93;;
7941;SDS011;4016;50.758;7.150;2023-02-10T21:46:56;19.13;;;10.77;;
7941;SDS011;4016;50.758;7.150;2023-02-10T21:52:04;25.20;;;11.83;;
7941;SDS011;4016;50.758;7.150;2023-02-10T21:57:05;20.07;;;10.43;;
7941;SDS011;4016;50.758;7.150;2023-02-10T22:02:10;19.93;;;11.73;;
7941;SDS011;4016;50.758;7.150;2023-02-10T22:07:13;22.87;;;11.63;;
7941;SDS011;4016;50.758;7.150;2023-02-10T22:12:13;19.60;;;11.67;;
7941;SDS011;4016;50.758;7.150;2023-02-10T22:17:13;22.87;;;12.30;;
7941;SDS011;4016;50.758;7.150;2023-02-10T22:22:14;18.57;;;11.00;;
7941;SDS011;4016;50.758;7.150;2023-02-10T22:27:14;20.63;;;11.67;;
7941;SDS011;4016;50.758;7.150;2023-02-10T22:32:15;19.07;;;11.87;;
7941;SDS011;4016;50.758;7.150;2023-02-10T22:37:15;18.40;;;11.07;;
7941;SDS011;4016;50.758;7.150;2023-02-10T22:42:16;18.70;;;11.60;;
7941;SDS011;4016;50.758;7.150;2023-02-10T22:47:16;21.03;;;10.50;;
7941;SDS011;4016;50.758;7.150;2023-02-10T22:52:17;17.77;;;12.10;;
7941;SDS011;4016;50.758;7.150;2023-02-10T22:57:19;21.10;;;12.23;;
7941;SDS011;4016;50.758;7.150;2023-02-10T23:02:19;17.47;;;10.40;;
7941;SDS011;4016;50.758;7.150;2023-02-10T23:07:19;20.00;;;10.80;;
7941;SDS011;4016;50.758;7.150;2023-02-10T23:12:20;17.70;;;11.10;;
7941;SDS011;4016;50.758;7.150;2023-02-10T23:17:20;18.63;;;10.20;;
7941;SDS011;4016;50.758;7.150;2023-02-10T23:22:21;17.47;;;10.37;;
7941;SDS011;4016;50.758;7.150;2023-02-10T23:27:23;20.30;;;12.17;;
7941;SDS011;4016;50.758;7.150;2023-02-10T23:32:25;13.77;;;9.83;;
7941;SDS011;4016;50.758;7.150;2023-02-10T23:37:25;16.13;;;10.13;;
7941;SDS011;4016;50.758;7.150;2023-02-10T23:42:26;12.97;;;9.67;;
7941;SDS011;4016;50.758;7.150;2023-02-10T23:47:26;16.20;;;10.23;;
7941;SDS011;4016;50.758;7.150;2023-02-10T23:52:27;20.03;;;11.90;;
7941;SDS011;4016;50.758;7.150;2023-02-10T23:57:27;18.07;;;11.67;;
